sensor_id;sensor_type;location;lat;lon;timestamp;pressure;altitude;pressure_sealevel;temperature;humidity
71165;BME280;58859;55.132;-1.586;2023-04-09T00:00:39;102194.94;;;8.98;100.00
71165;BME280;58859;55.132;-1.586;2023-04-09T00:03:05;102193.16;;;8.99;100.00
71165;BME280;58859;55.132;-1.586;2023-04-09T00:05:31;102192.97;;;9.02;100.00
71165;BME280;58859;55.132;-1.586;2023-04-09T00:07:56;102188.22;;;9.21;100.00
71165;BME280;58859;55.132;-1.586;2023-04-09T00:10:22;102187.97;;;8.99;100.00
71165;BME280;58859;55.132;-1.586;2023-04-09T00:12:47;102174.25;;;8.97;100.00
71165;BME280;58859;55.132;-1.586;2023-04-09T00:15:13;102180.66;;;9.31;100.00
71165;BME280;58859;55.132;-1.586;2023-04-09T00:17:38;102178.88;;;9.18;100.00
71165;BME280;58859;55.132;-1.586;2023-04-09T00:20:04;102183.47;;;9.28;100.00
71165;BME280;58859;55.132;-1.586;2023-04-09T00:22:30;102176.81;;;9.23;100.00
71165;BME280;58859;55.132;-1.586;2023-04-09T00:24:55;102183.81;;;8.96;100.00
71165;BME280;58859;55.132;-1.586;2023-04-09T00:27:21;102179.81;;;9.05;100.00
71165;BME280;58859;55.132;-1.586;2023-04-09T00:29:47;102174.44;;;9.33;100.00
71165;BME280;58859;55.132;-1.586;2023-04-09T00:32:12;102173.81;;;9.67;100.00
71165;BME280;58859;55.132;-1.586;2023-04-09T00:34:38;102164.53;;;9.51;100.00
71165;BME280;58859;55.132;-1.586;2023-04-09T00:37:04;102163.09;;;9.34;100.00
71165;BME280;58859;55.132;-1.586;2023-04-09T00:39:29;102171.91;;;9.57;100.00
71165;BME280;58859;55.132;-1.586;2023-04-09T00:41:59;102166.22;;;9.27;100.00
71165;BME280;58859;55.132;-1.586;2023-04-09T00:44:26;102154.16;;;9.13;100.00
71165;BME280;58859;55.132;-1.586;2023-04-09T00:46:53;102151.75;;;9.22;100.00
71165;BME280;58859;55.132;-1.586;2023-04-09T00:49:18;102162.06;;;9.37;100.00
71165;BME280;58859;55.132;-1.586;2023-04-09T00:51:45;102159.88;;;9.43;100.00
71165;BME280;58859;55.132;-1.586;2023-04-09T00:54:11;102139.00;;;9.32;100.00
71165;BME280;58859;55.132;-1.586;2023-04-09T00:56:37;102144.41;;;9.42;100.00
71165;BME280;58859;55.132;-1.586;2023-04-09T00:59:03;102147.41;;;9.48;100.00
71165;BME280;58859;55.132;-1.586;2023-04-09T01:01:28;102137.13;;;9.34;100.00
71165;BME280;58859;55.132;-1.586;2023-04-09T01:03:54;102124.06;;;9.36;100.00
71165;BME280;58859;55.132;-1.586;2023-04-09T01:06:41;102135.47;;;9.20;100.00
71165;BME280;58859;55.132;-1.586;2023-04-09T01:12:11;102127.81;;;9.19;100.00
71165;BME280;58859;55.132;-1.586;2023-04-09T01:14:48;102120.22;;;9.16;100.00
71165;BME280;58859;55.132;-1.586;2023-04-09T01:17:41;102119.56;;;9.00;100.00
71165;BME280;58859;55.132;-1.586;2023-04-09T01:22:59;102085.41;;;8.81;100.00
71165;BME280;58859;55.132;-1.586;2023-04-09T01:31:14;102110.09;;;8.86;100.00
71165;BME280;58859;55.132;-1.586;2023-04-09T01:33:41;102106.78;;;8.97;100.00
71165;BME280;58859;55.132;-1.586;2023-04-09T01:36:08;102101.09;;;8.92;100.00
71165;BME280;58859;55.132;-1.586;2023-04-09T01:38:39;102094.31;;;8.64;100.00
71165;BME280;58859;55.132;-1.586;2023-04-09T01:41:06;102109.59;;;8.81;100.00
71165;BME280;58859;55.132;-1.586;2023-04-09T01:43:33;102101.50;;;8.73;100.00
71165;BME280;58859;55.132;-1.586;2023-04-09T01:46:00;102099.94;;;8.83;100.00
71165;BME280;58859;55.132;-1.586;2023-04-09T01:48:28;102093.72;;;8.86;100.00
71165;BME280;58859;55.132;-1.586;2023-04-09T01:50:54;102087.09;;;8.82;100.00
71165;BME280;58859;55.132;-1.586;2023-04-09T01:53:20;102078.16;;;8.98;100.00
71165;BME280;58859;55.132;-1.586;2023-04-09T01:55:46;102092.47;;;8.79;100.00
71165;BME280;58859;55.132;-1.586;2023-04-09T01:58:12;102091.66;;;9.16;100.00
71165;BME280;58859;55.132;-1.586;2023-04-09T02:00:39;102079.19;;;9.08;100.00
71165;BME280;58859;55.132;-1.586;2023-04-09T02:05:43;102083.84;;;8.78;100.00
71165;BME280;58859;55.132;-1.586;2023-04-09T02:08:12;102086.28;;;8.94;100.00
71165;BME280;58859;55.132;-1.586;2023-04-09T02:10:42;102085.44;;;9.06;100.00
71165;BME280;58859;55.132;-1.586;2023-04-09T02:13:12;102081.28;;;8.91;100.00
71165;BME280;58859;55.132;-1.586;2023-04-09T02:15:40;102081.06;;;9.06;100.00
71165;BME280;58859;55.132;-1.586;2023-04-09T02:18:23;102063.94;;;8.79;100.00
71165;BME280;58859;55.132;-1.586;2023-04-09T02:20:48;102075.16;;;8.92;100.00
71165;BME280;58859;55.132;-1.586;2023-04-09T02:23:15;102071.72;;;9.04;100.00
71165;BME280;58859;55.132;-1.586;2023-04-09T02:25:42;102069.66;;;9.09;100.00
71165;BME280;58859;55.132;-1.586;2023-04-09T02:28:08;102065.28;;;8.97;100.00
71165;BME280;58859;55.132;-1.586;2023-04-09T02:30:33;102059.50;;;8.41;100.00
71165;BME280;58859;55.132;-1.586;2023-04-09T02:32:59;102065.84;;;8.50;100.00
71165;BME280;58859;55.132;-1.586;2023-04-09T02:35:24;102039.59;;;8.54;100.00
71165;BME280;58859;55.132;-1.586;2023-04-09T02:37:49;102059.66;;;8.78;100.00
71165;BME280;58859;55.132;-1.586;2023-04-09T02:40:15;102026.44;;;8.45;100.00
71165;BME280;58859;55.132;-1.586;2023-04-09T02:42:40;102056.97;;;8.66;100.00
71165;BME280;58859;55.132;-1.586;2023-04-09T02:45:06;102057.81;;;8.80;100.00
71165;BME280;58859;55.132;-1.586;2023-04-09T02:47:32;102057.56;;;8.57;100.00
71165;BME280;58859;55.132;-1.586;2023-04-09T02:49:57;102052.41;;;8.70;100.00
71165;BME280;58859;55.132;-1.586;2023-04-09T02:52:22;102045.47;;;8.71;100.00
71165;BME280;58859;55.132;-1.586;2023-04-09T02:54:49;102047.94;;;8.59;100.00
71165;BME280;58859;55.132;-1.586;2023-04-09T02:57:14;102013.69;;;8.42;100.00
71165;BME280;58859;55.132;-1.586;2023-04-09T02:59:40;102047.94;;;8.59;100.00
71165;BME280;58859;55.132;-1.586;2023-04-09T03:02:05;102048.25;;;8.80;100.00
71165;BME280;58859;55.132;-1.586;2023-04-09T03:04:31;102050.72;;;8.56;100.00
71165;BME280;58859;55.132;-1.586;2023-04-09T03:06:56;102041.63;;;8.76;100.00
71165;BME280;58859;55.132;-1.586;2023-04-09T03:09:21;102050.66;;;8.83;100.00
71165;BME280;58859;55.132;-1.586;2023-04-09T03:11:47;102042.34;;;8.78;100.00
71165;BME280;58859;55.132;-1.586;2023-04-09T03:14:12;102021.38;;;8.81;100.00
71165;BME280;58859;55.132;-1.586;2023-04-09T03:16:37;102028.13;;;8.58;100.00
71165;BME280;58859;55.132;-1.586;2023-04-09T03:19:03;102029.34;;;8.53;100.00
71165;BME280;58859;55.132;-1.586;2023-04-09T03:21:28;102023.97;;;8.56;100.00
71165;BME280;58859;55.132;-1.586;2023-04-09T03:23:54;102025.03;;;8.79;100.00
71165;BME280;58859;55.132;-1.586;2023-04-09T03:26:19;102024.50;;;8.74;100.00
71165;BME280;58859;55.132;-1.586;2023-04-09T03:28:44;102009.75;;;8.74;100.00
71165;BME280;58859;55.132;-1.586;2023-04-09T03:31:10;102023.75;;;8.59;100.00
71165;BME280;58859;55.132;-1.586;2023-04-09T03:33:35;102026.47;;;8.70;100.00
71165;BME280;58859;55.132;-1.586;2023-04-09T03:36:01;102027.31;;;8.71;100.00
71165;BME280;58859;55.132;-1.586;2023-04-09T03:38:26;102015.38;;;8.68;100.00
71165;BME280;58859;55.132;-1.586;2023-04-09T03:40:52;102007.16;;;8.74;100.00
71165;BME280;58859;55.132;-1.586;2023-04-09T03:43:17;102014.03;;;8.75;100.00
71165;BME280;58859;55.132;-1.586;2023-04-09T03:45:42;102018.38;;;8.23;100.00
71165;BME280;58859;55.132;-1.586;2023-04-09T03:48:08;101985.50;;;8.23;100.00
71165;BME280;58859;55.132;-1.586;2023-04-09T03:50:40;102009.56;;;8.25;100.00
71165;BME280;58859;55.132;-1.586;2023-04-09T03:53:06;102002.38;;;8.43;100.00
71165;BME280;58859;55.132;-1.586;2023-04-09T03:55:32;102001.13;;;8.36;100.00
71165;BME280;58859;55.132;-1.586;2023-04-09T03:57:57;102012.00;;;8.28;100.00
71165;BME280;58859;55.132;-1.586;2023-04-09T04:00:22;102008.06;;;8.35;100.00
71165;BME280;58859;55.132;-1.586;2023-04-09T04:02:48;101996.63;;;8.25;100.00
71165;BME280;58859;55.132;-1.586;2023-04-09T04:05:13;101999.66;;;8.05;100.00
71165;BME280;58859;55.132;-1.586;2023-04-09T04:07:39;101985.81;;;7.92;100.00
71165;BME280;58859;55.132;-1.586;2023-04-09T04:10:05;101987.47;;;7.80;100.00
71165;BME280;58859;55.132;-1.586;2023-04-09T04:12:31;101994.81;;;7.86;100.00
71165;BME280;58859;55.132;-1.586;2023-04-09T04:14:57;101994.88;;;7.99;100.00
71165;BME280;58859;55.132;-1.586;2023-04-09T04:17:22;101980.03;;;7.88;100.00
71165;BME280;58859;55.132;-1.586;2023-04-09T04:19:47;101997.72;;;7.82;100.00
71165;BME280;58859;55.132;-1.586;2023-04-09T04:22:13;101981.81;;;8.00;100.00
71165;BME280;58859;55.132;-1.586;2023-04-09T04:24:38;101997.34;;;8.00;100.00
71165;BME280;58859;55.132;-1.586;2023-04-09T04:27:04;101992.53;;;8.08;100.00
71165;BME280;58859;55.132;-1.586;2023-04-09T04:29:29;101995.72;;;7.73;100.00
71165;BME280;58859;55.132;-1.586;2023-04-09T04:31:54;101988.88;;;7.98;100.00
71165;BME280;58859;55.132;-1.586;2023-04-09T04:34:20;101979.34;;;7.99;100.00
71165;BME280;58859;55.132;-1.586;2023-04-09T04:36:45;101974.22;;;7.85;100.00
71165;BME280;58859;55.132;-1.586;2023-04-09T04:39:10;101977.25;;;7.91;100.00
71165;BME280;58859;55.132;-1.586;2023-04-09T04:41:36;101983.22;;;7.79;100.00
71165;BME280;58859;55.132;-1.586;2023-04-09T04:44:01;101989.91;;;7.55;100.00
71165;BME280;58859;55.132;-1.586;2023-04-09T04:46:27;101981.72;;;7.75;100.00
71165;BME280;58859;55.132;-1.586;2023-04-09T04:48:52;101986.94;;;7.61;100.00
71165;BME280;58859;55.132;-1.586;2023-04-09T04:51:18;101988.56;;;7.35;100.00
71165;BME280;58859;55.132;-1.586;2023-04-09T04:53:43;101986.03;;;7.07;100.00
71165;BME280;58859;55.132;-1.586;2023-04-09T04:56:15;101969.66;;;7.07;100.00
71165;BME280;58859;55.132;-1.586;2023-04-09T04:58:41;101974.19;;;7.17;100.00
71165;BME280;58859;55.132;-1.586;2023-04-09T05:01:06;101971.69;;;7.16;100.00
71165;BME280;58859;55.132;-1.586;2023-04-09T05:03:32;101975.97;;;7.03;100.00
71165;BME280;58859;55.132;-1.586;2023-04-09T05:05:58;101974.66;;;7.10;100.00
71165;BME280;58859;55.132;-1.586;2023-04-09T05:08:23;101975.41;;;7.26;100.00
71165;BME280;58859;55.132;-1.586;2023-04-09T05:10:49;101973.63;;;7.40;100.00
71165;BME280;58859;55.132;-1.586;2023-04-09T05:13:15;101973.03;;;7.35;100.00
71165;BME280;58859;55.132;-1.586;2023-04-09T05:15:40;101971.44;;;7.47;100.00
71165;BME280;58859;55.132;-1.586;2023-04-09T05:18:06;101968.91;;;7.33;100.00
71165;BME280;58859;55.132;-1.586;2023-04-09T05:20:33;101976.22;;;7.40;100.00
71165;BME280;58859;55.132;-1.586;2023-04-09T05:22:59;101940.25;;;7.36;100.00
71165;BME280;58859;55.132;-1.586;2023-04-09T05:25:24;101971.06;;;7.53;100.00
71165;BME280;58859;55.132;-1.586;2023-04-09T05:27:49;101969.63;;;7.49;100.00
71165;BME280;58859;55.132;-1.586;2023-04-09T05:30:15;101969.63;;;7.49;100.00
71165;BME280;58859;55.132;-1.586;2023-04-09T05:32:40;101967.06;;;7.62;100.00
71165;BME280;58859;55.132;-1.586;2023-04-09T05:35:06;101965.44;;;7.46;100.00
71165;BME280;58859;55.132;-1.586;2023-04-09T05:37:32;101969.47;;;7.65;100.00
71165;BME280;58859;55.132;-1.586;2023-04-09T05:39:57;101964.94;;;7.68;100.00
71165;BME280;58859;55.132;-1.586;2023-04-09T05:42:22;101958.97;;;7.53;100.00
71165;BME280;58859;55.132;-1.586;2023-04-09T05:44:48;101950.31;;;7.40;100.00
71165;BME280;58859;55.132;-1.586;2023-04-09T05:47:13;101951.88;;;7.43;100.00
71165;BME280;58859;55.132;-1.586;2023-04-09T05:49:38;101961.13;;;7.33;100.00
71165;BME280;58859;55.132;-1.586;2023-04-09T05:52:04;101956.25;;;7.28;100.00
71165;BME280;58859;55.132;-1.586;2023-04-09T05:54:30;101952.69;;;7.03;100.00
71165;BME280;58859;55.132;-1.586;2023-04-09T05:56:55;101948.09;;;7.48;100.00
71165;BME280;58859;55.132;-1.586;2023-04-09T05:59:21;101947.88;;;7.51;100.00
71165;BME280;58859;55.132;-1.586;2023-04-09T06:01:46;101942.22;;;7.59;100.00
71165;BME280;58859;55.132;-1.586;2023-04-09T06:04:12;101938.41;;;8.04;100.00
71165;BME280;58859;55.132;-1.586;2023-04-09T06:06:37;101948.31;;;7.85;100.00
71165;BME280;58859;55.132;-1.586;2023-04-09T06:09:03;101953.94;;;8.31;100.00
71165;BME280;58859;55.132;-1.586;2023-04-09T06:11:29;101953.94;;;8.43;100.00
71165;BME280;58859;55.132;-1.586;2023-04-09T06:13:54;101955.81;;;8.66;100.00
71165;BME280;58859;55.132;-1.586;2023-04-09T06:16:20;101944.16;;;8.97;100.00
71165;BME280;58859;55.132;-1.586;2023-04-09T06:18:45;101940.94;;;9.66;100.00
71165;BME280;58859;55.132;-1.586;2023-04-09T06:21:13;101938.25;;;9.44;100.00
71165;BME280;58859;55.132;-1.586;2023-04-09T06:23:39;101933.81;;;9.57;100.00
71165;BME280;58859;55.132;-1.586;2023-04-09T06:26:05;101930.50;;;8.70;100.00
71165;BME280;58859;55.132;-1.586;2023-04-09T06:28:31;101930.41;;;8.34;100.00
71165;BME280;58859;55.132;-1.586;2023-04-09T06:30:57;101925.50;;;8.17;100.00
71165;BME280;58859;55.132;-1.586;2023-04-09T06:33:22;101920.81;;;8.22;100.00
71165;BME280;58859;55.132;-1.586;2023-04-09T06:35:48;101927.50;;;8.38;100.00
71165;BME280;58859;55.132;-1.586;2023-04-09T06:38:14;101922.13;;;8.41;100.00
71165;BME280;58859;55.132;-1.586;2023-04-09T06:40:40;101917.91;;;8.14;100.00
71165;BME280;58859;55.132;-1.586;2023-04-09T06:43:06;101901.09;;;7.94;100.00
71165;BME280;58859;55.132;-1.586;2023-04-09T06:45:31;101905.78;;;8.01;100.00
71165;BME280;58859;55.132;-1.586;2023-04-09T06:47:58;101904.59;;;8.32;100.00
71165;BME280;58859;55.132;-1.586;2023-04-09T06:50:23;101890.28;;;8.39;100.00
71165;BME280;58859;55.132;-1.586;2023-04-09T06:52:50;101904.97;;;8.26;100.00
71165;BME280;58859;55.132;-1.586;2023-04-09T06:55:15;101898.34;;;8.35;100.00
71165;BME280;58859;55.132;-1.586;2023-04-09T06:57:41;101896.28;;;7.75;100.00
71165;BME280;58859;55.132;-1.586;2023-04-09T07:00:06;101905.25;;;8.09;100.00
71165;BME280;58859;55.132;-1.586;2023-04-09T07:02:33;101894.97;;;7.82;100.00
71165;BME280;58859;55.132;-1.586;2023-04-09T07:04:58;101898.06;;;8.39;100.00
71165;BME280;58859;55.132;-1.586;2023-04-09T07:07:24;101905.34;;;7.95;100.00
71165;BME280;58859;55.132;-1.586;2023-04-09T07:09:49;101903.19;;;8.01;100.00
71165;BME280;58859;55.132;-1.586;2023-04-09T07:12:31;101916.13;;;7.89;100.00
71165;BME280;58859;55.132;-1.586;2023-04-09T07:15:01;101916.97;;;8.15;100.00
71165;BME280;58859;55.132;-1.586;2023-04-09T07:17:27;101911.81;;;7.75;100.00
71165;BME280;58859;55.132;-1.586;2023-04-09T07:19:52;101915.97;;;8.17;100.00
71165;BME280;58859;55.132;-1.586;2023-04-09T07:22:20;101905.59;;;8.17;100.00
71165;BME280;58859;55.132;-1.586;2023-04-09T07:24:48;101913.59;;;8.64;100.00
71165;BME280;58859;55.132;-1.586;2023-04-09T07:27:24;101919.44;;;8.68;100.00
71165;BME280;58859;55.132;-1.586;2023-04-09T07:29:50;101914.94;;;8.32;100.00
71165;BME280;58859;55.132;-1.586;2023-04-09T07:32:16;101914.28;;;8.16;100.00
71165;BME280;58859;55.132;-1.586;2023-04-09T07:34:44;101922.94;;;7.90;100.00
71165;BME280;58859;55.132;-1.586;2023-04-09T07:37:10;101913.97;;;8.21;100.00
71165;BME280;58859;55.132;-1.586;2023-04-09T07:39:36;101915.16;;;8.54;100.00
71165;BME280;58859;55.132;-1.586;2023-04-09T07:42:02;101914.69;;;8.10;100.00
71165;BME280;58859;55.132;-1.586;2023-04-09T07:44:28;101925.41;;;8.68;100.00
71165;BME280;58859;55.132;-1.586;2023-04-09T07:46:54;101926.16;;;8.33;100.00
71165;BME280;58859;55.132;-1.586;2023-04-09T07:49:19;101920.41;;;8.15;100.00
71165;BME280;58859;55.132;-1.586;2023-04-09T07:51:46;101916.50;;;8.60;100.00
71165;BME280;58859;55.132;-1.586;2023-04-09T07:54:11;101904.16;;;8.63;100.00
71165;BME280;58859;55.132;-1.586;2023-04-09T07:56:37;101910.97;;;8.90;100.00
71165;BME280;58859;55.132;-1.586;2023-04-09T07:59:02;101918.69;;;8.53;100.00
71165;BME280;58859;55.132;-1.586;2023-04-09T08:01:27;101912.25;;;8.46;100.00
71165;BME280;58859;55.132;-1.586;2023-04-09T08:03:53;101914.91;;;8.95;100.00
71165;BME280;58859;55.132;-1.586;2023-04-09T08:06:18;101889.22;;;8.67;100.00
71165;BME280;58859;55.132;-1.586;2023-04-09T08:08:43;101900.50;;;9.28;100.00
71165;BME280;58859;55.132;-1.586;2023-04-09T08:11:09;101907.47;;;9.27;100.00
71165;BME280;58859;55.132;-1.586;2023-04-09T08:13:35;101903.56;;;9.09;100.00
71165;BME280;58859;55.132;-1.586;2023-04-09T08:16:00;101896.75;;;8.95;100.00
71165;BME280;58859;55.132;-1.586;2023-04-09T08:18:29;101910.91;;;9.15;100.00
71165;BME280;58859;55.132;-1.586;2023-04-09T08:20:55;101900.81;;;8.99;100.00
71165;BME280;58859;55.132;-1.586;2023-04-09T08:23:20;101909.56;;;8.73;100.00
71165;BME280;58859;55.132;-1.586;2023-04-09T08:25:46;101903.06;;;9.04;100.00
71165;BME280;58859;55.132;-1.586;2023-04-09T08:28:11;101902.50;;;9.11;100.00
71165;BME280;58859;55.132;-1.586;2023-04-09T08:30:37;101895.78;;;9.09;100.00
71165;BME280;58859;55.132;-1.586;2023-04-09T08:33:02;101893.47;;;9.17;100.00
71165;BME280;58859;55.132;-1.586;2023-04-09T08:35:31;101887.47;;;9.64;100.00
71165;BME280;58859;55.132;-1.586;2023-04-09T08:37:56;101872.47;;;9.20;100.00
71165;BME280;58859;55.132;-1.586;2023-04-09T08:40:22;101880.28;;;9.67;100.00
71165;BME280;58859;55.132;-1.586;2023-04-09T08:42:52;101894.97;;;9.91;100.00
71165;BME280;58859;55.132;-1.586;2023-04-09T08:45:20;101896.91;;;10.00;100.00
71165;BME280;58859;55.132;-1.586;2023-04-09T08:47:47;101880.22;;;9.91;100.00
71165;BME280;58859;55.132;-1.586;2023-04-09T08:50:13;101892.78;;;10.08;100.00
71165;BME280;58859;55.132;-1.586;2023-04-09T08:52:39;101889.00;;;10.01;100.00
71165;BME280;58859;55.132;-1.586;2023-04-09T08:55:05;101884.25;;;10.63;100.00
71165;BME280;58859;55.132;-1.586;2023-04-09T08:57:39;101884.63;;;10.81;100.00
71165;BME280;58859;55.132;-1.586;2023-04-09T09:00:05;101884.38;;;10.51;100.00
71165;BME280;58859;55.132;-1.586;2023-04-09T09:02:32;101879.38;;;10.36;100.00
71165;BME280;58859;55.132;-1.586;2023-04-09T09:04:57;101881.59;;;11.08;100.00
71165;BME280;58859;55.132;-1.586;2023-04-09T09:07:29;101885.06;;;10.86;100.00
71165;BME280;58859;55.132;-1.586;2023-04-09T09:10:00;101890.06;;;11.64;100.00
71165;BME280;58859;55.132;-1.586;2023-04-09T09:12:38;101875.25;;;13.84;100.00
71165;BME280;58859;55.132;-1.586;2023-04-09T09:15:38;101879.56;;;12.27;100.00
71165;BME280;58859;55.132;-1.586;2023-04-09T09:17:58;101868.84;;;11.79;100.00
71165;BME280;58859;55.132;-1.586;2023-04-09T09:20:25;101876.44;;;11.39;100.00
71165;BME280;58859;55.132;-1.586;2023-04-09T09:22:54;101872.13;;;11.81;100.00
71165;BME280;58859;55.132;-1.586;2023-04-09T09:25:21;101869.03;;;11.55;100.00
71165;BME280;58859;55.132;-1.586;2023-04-09T09:27:50;101849.50;;;11.29;100.00
71165;BME280;58859;55.132;-1.586;2023-04-09T09:30:23;101858.91;;;11.41;100.00
71165;BME280;58859;55.132;-1.586;2023-04-09T09:32:52;101861.19;;;11.35;100.00
71165;BME280;58859;55.132;-1.586;2023-04-09T09:35:18;101859.44;;;11.24;100.00
71165;BME280;58859;55.132;-1.586;2023-04-09T09:37:43;101861.16;;;11.03;100.00
71165;BME280;58859;55.132;-1.586;2023-04-09T09:40:09;101855.19;;;10.58;100.00
71165;BME280;58859;55.132;-1.586;2023-04-09T09:42:35;101854.06;;;10.94;100.00
71165;BME280;58859;55.132;-1.586;2023-04-09T09:45:02;101850.28;;;10.98;100.00
71165;BME280;58859;55.132;-1.586;2023-04-09T09:47:42;101835.63;;;10.86;100.00
71165;BME280;58859;55.132;-1.586;2023-04-09T09:50:08;101825.63;;;11.45;100.00
71165;BME280;58859;55.132;-1.586;2023-04-09T09:52:34;101817.72;;;11.35;100.00
71165;BME280;58859;55.132;-1.586;2023-04-09T09:55:03;101813.47;;;11.03;100.00
71165;BME280;58859;55.132;-1.586;2023-04-09T09:57:32;101819.47;;;11.14;100.00
71165;BME280;58859;55.132;-1.586;2023-04-09T10:00:01;101825.91;;;10.88;100.00
71165;BME280;58859;55.132;-1.586;2023-04-09T10:02:31;101818.06;;;10.99;100.00
71165;BME280;58859;55.132;-1.586;2023-04-09T10:05:04;101799.56;;;11.45;100.00
71165;BME280;58859;55.132;-1.586;2023-04-09T10:07:30;101810.00;;;11.45;100.00
71165;BME280;58859;55.132;-1.586;2023-04-09T10:09:57;101811.25;;;10.87;100.00
71165;BME280;58859;55.132;-1.586;2023-04-09T10:12:24;101814.13;;;10.62;100.00
71165;BME280;58859;55.132;-1.586;2023-04-09T10:14:51;101812.13;;;10.65;100.00
71165;BME280;58859;55.132;-1.586;2023-04-09T10:17:19;101800.19;;;11.06;100.00
71165;BME280;58859;55.132;-1.586;2023-04-09T10:19:58;101800.16;;;11.48;100.00
71165;BME280;58859;55.132;-1.586;2023-04-09T10:22:26;101796.88;;;10.61;100.00
71165;BME280;58859;55.132;-1.586;2023-04-09T10:24:52;101793.75;;;10.89;100.00
71165;BME280;58859;55.132;-1.586;2023-04-09T10:27:19;101787.72;;;10.88;100.00
71165;BME280;58859;55.132;-1.586;2023-04-09T10:29:48;101780.44;;;11.35;100.00
71165;BME280;58859;55.132;-1.586;2023-04-09T10:32:20;101783.00;;;10.82;100.00
71165;BME280;58859;55.132;-1.586;2023-04-09T10:34:48;101771.72;;;10.93;100.00
71165;BME280;58859;55.132;-1.586;2023-04-09T10:37:19;101772.22;;;11.19;100.00
71165;BME280;58859;55.132;-1.586;2023-04-09T10:39:46;101768.03;;;11.07;100.00
71165;BME280;58859;55.132;-1.586;2023-04-09T10:42:14;101749.38;;;10.90;100.00
71165;BME280;58859;55.132;-1.586;2023-04-09T10:44:42;101757.84;;;11.04;100.00
71165;BME280;58859;55.132;-1.586;2023-04-09T10:47:08;101755.19;;;10.83;100.00
71165;BME280;58859;55.132;-1.586;2023-04-09T10:49:36;101760.22;;;10.42;100.00
71165;BME280;58859;55.132;-1.586;2023-04-09T10:52:09;101749.13;;;10.39;100.00
71165;BME280;58859;55.132;-1.586;2023-04-09T10:54:36;101747.13;;;10.43;100.00
71165;BME280;58859;55.132;-1.586;2023-04-09T10:59:31;101733.78;;;10.25;100.00
71165;BME280;58859;55.132;-1.586;2023-04-09T11:01:56;101735.66;;;10.12;100.00
71165;BME280;58859;55.132;-1.586;2023-04-09T11:04:28;101730.00;;;10.29;100.00
71165;BME280;58859;55.132;-1.586;2023-04-09T11:06:58;101727.28;;;9.98;100.00
71165;BME280;58859;55.132;-1.586;2023-04-09T11:09:25;101725.13;;;10.36;100.00
71165;BME280;58859;55.132;-1.586;2023-04-09T11:11:52;101715.53;;;10.48;100.00
71165;BME280;58859;55.132;-1.586;2023-04-09T11:14:20;101706.88;;;10.90;100.00
71165;BME280;58859;55.132;-1.586;2023-04-09T11:16:46;101706.28;;;10.98;100.00
71165;BME280;58859;55.132;-1.586;2023-04-09T11:19:12;101705.56;;;10.75;100.00
71165;BME280;58859;55.132;-1.586;2023-04-09T11:21:41;101706.56;;;10.52;100.00
71165;BME280;58859;55.132;-1.586;2023-04-09T11:24:11;101688.41;;;10.72;100.00
71165;BME280;58859;55.132;-1.586;2023-04-09T11:26:37;101695.25;;;10.19;100.00
71165;BME280;58859;55.132;-1.586;2023-04-09T11:29:06;101683.63;;;11.09;100.00
71165;BME280;58859;55.132;-1.586;2023-04-09T11:31:35;101693.44;;;11.47;100.00
71165;BME280;58859;55.132;-1.586;2023-04-09T11:34:01;101700.66;;;11.54;100.00
71165;BME280;58859;55.132;-1.586;2023-04-09T11:36:27;101689.63;;;11.21;100.00
71165;BME280;58859;55.132;-1.586;2023-04-09T11:38:54;101680.22;;;11.80;100.00
71165;BME280;58859;55.132;-1.586;2023-04-09T11:41:36;101685.53;;;11.07;100.00
71165;BME280;58859;55.132;-1.586;2023-04-09T11:44:04;101679.56;;;11.16;100.00
71165;BME280;58859;55.132;-1.586;2023-04-09T11:46:31;101665.28;;;11.31;100.00
71165;BME280;58859;55.132;-1.586;2023-04-09T11:48:57;101664.41;;;11.72;100.00
71165;BME280;58859;55.132;-1.586;2023-04-09T11:51:23;101653.09;;;11.62;100.00
71165;BME280;58859;55.132;-1.586;2023-04-09T11:53:50;101666.53;;;11.58;100.00
71165;BME280;58859;55.132;-1.586;2023-04-09T11:56:15;101653.06;;;11.83;100.00
71165;BME280;58859;55.132;-1.586;2023-04-09T11:58:45;101650.16;;;11.46;100.00
71165;BME280;58859;55.132;-1.586;2023-04-09T12:01:12;101650.63;;;11.61;100.00
71165;BME280;58859;55.132;-1.586;2023-04-09T12:03:38;101648.50;;;11.24;100.00
71165;BME280;58859;55.132;-1.586;2023-04-09T12:06:04;101649.22;;;11.77;100.00
71165;BME280;58859;55.132;-1.586;2023-04-09T12:08:30;101658.72;;;11.67;100.00
71165;BME280;58859;55.132;-1.586;2023-04-09T12:11:13;101656.56;;;11.21;100.00
71165;BME280;58859;55.132;-1.586;2023-04-09T12:13:39;101636.38;;;12.04;100.00
71165;BME280;58859;55.132;-1.586;2023-04-09T12:16:09;101647.88;;;11.62;100.00
71165;BME280;58859;55.132;-1.586;2023-04-09T12:18:35;101630.97;;;12.36;100.00
71165;BME280;58859;55.132;-1.586;2023-04-09T12:21:02;101622.28;;;12.84;100.00
71165;BME280;58859;55.132;-1.586;2023-04-09T12:23:27;101634.19;;;12.09;100.00
71165;BME280;58859;55.132;-1.586;2023-04-09T12:25:55;101624.75;;;12.08;100.00
71165;BME280;58859;55.132;-1.586;2023-04-09T12:28:23;101617.06;;;13.22;100.00
71165;BME280;58859;55.132;-1.586;2023-04-09T12:30:49;101620.94;;;12.80;100.00
71165;BME280;58859;55.132;-1.586;2023-04-09T12:33:15;101622.84;;;12.78;100.00
71165;BME280;58859;55.132;-1.586;2023-04-09T12:35:40;101616.22;;;12.06;100.00
71165;BME280;58859;55.132;-1.586;2023-04-09T12:38:06;101611.44;;;12.40;100.00
71165;BME280;58859;55.132;-1.586;2023-04-09T12:40:31;101604.03;;;12.84;100.00
71165;BME280;58859;55.132;-1.586;2023-04-09T12:42:57;101590.31;;;12.15;100.00
71165;BME280;58859;55.132;-1.586;2023-04-09T12:45:22;101598.81;;;12.17;100.00
71165;BME280;58859;55.132;-1.586;2023-04-09T12:47:48;101583.31;;;12.25;100.00
71165;BME280;58859;55.132;-1.586;2023-04-09T12:50:14;101581.75;;;12.89;100.00
71165;BME280;58859;55.132;-1.586;2023-04-09T12:52:40;101568.38;;;13.21;100.00